createdAt,value
2022-08-26T16:04:09.752Z,1.60
2022-08-26T16:07:43.368Z,1.50
2022-08-26T16:11:23.089Z,1.50
2022-08-26T16:15:01.304Z,1.30
2022-08-26T16:18:40.200Z,1.70
2022-08-26T16:22:17.781Z,1.20
2022-08-26T16:25:55.425Z,1.30
2022-08-26T16:29:33.441Z,1.60
2022-08-26T16:33:14.410Z,1.90
2022-08-26T16:37:06.637Z,1.30
2022-08-26T16:40:44.283Z,1.00
2022-08-26T16:44:22.074Z,1.10
2022-08-26T16:47:59.833Z,1.00
2022-08-26T16:51:38.517Z,1.20
2022-08-26T16:55:16.162Z,0.80
2022-08-26T16:58:53.668Z,0.70
2022-08-26T17:02:32.582Z,0.70
2022-08-26T17:06:11.579Z,0.60
2022-08-26T17:09:49.265Z,0.60
2022-08-26T17:13:35.746Z,1.10
2022-08-26T17:17:14.181Z,0.70
2022-08-26T17:20:52.738Z,0.50
2022-08-26T17:24:33.998Z,0.60
2022-08-26T17:28:13.561Z,0.50
2022-08-26T17:31:51.728Z,0.50
2022-08-26T17:35:28.674Z,0.60
2022-08-26T17:39:05.680Z,0.60
2022-08-26T17:42:43.917Z,0.60
2022-08-26T17:46:21.463Z,0.50
2022-08-26T17:50:00.617Z,0.50
2022-08-26T17:53:39.498Z,0.50
2022-08-26T17:57:16.480Z,0.70
2022-08-26T18:00:56.695Z,0.70
2022-08-26T18:04:34.460Z,0.70
2022-08-26T18:08:12.254Z,0.70
2022-08-26T18:11:51.935Z,0.90
2022-08-26T18:15:29.695Z,0.70
2022-08-26T18:19:07.400Z,0.80
2022-08-26T18:22:47.317Z,1.10
2022-08-26T18:26:37.087Z,1.10
2022-08-26T18:30:18.931Z,0.90
2022-08-26T18:33:58.875Z,1.30
2022-08-26T18:37:36.477Z,1.30
2022-08-26T18:41:14.801Z,1.30
2022-08-26T18:44:51.678Z,1.50
2022-08-26T18:48:29.893Z,1.20
2022-08-26T18:52:07.131Z,1.10
2022-08-26T18:55:45.636Z,1.10
2022-08-26T18:59:28.804Z,1.40
2022-08-26T19:03:08.292Z,1.30
2022-08-26T19:06:57.094Z,2.60
2022-08-26T19:10:39.764Z,1.70
2022-08-26T19:14:18.267Z,1.10
2022-08-26T19:17:55.802Z,1.00
2022-08-26T19:21:35.487Z,1.30
2022-08-26T19:25:12.881Z,0.80
2022-08-26T19:28:51.404Z,0.70
2022-08-26T19:32:30.654Z,0.80
2022-08-26T19:36:14.784Z,0.90
2022-08-26T19:39:52.756Z,1.30
2022-08-26T19:43:30.608Z,0.80
2022-08-26T19:47:11.089Z,1.20
2022-08-26T19:50:48.934Z,1.00
2022-08-26T19:54:26.748Z,1.00
2022-08-26T19:58:03.783Z,0.60
2022-08-26T20:01:41.170Z,0.70
2022-08-26T20:05:21.774Z,0.80
2022-08-26T20:09:00.611Z,0.70
2022-08-26T20:12:37.930Z,0.70
2022-08-26T20:16:17.323Z,0.60
2022-08-26T20:19:55.037Z,0.60
2022-08-26T20:23:32.699Z,0.80
2022-08-26T20:27:11.390Z,0.70
2022-08-26T20:30:48.590Z,0.90
2022-08-26T20:34:27.139Z,0.70
2022-08-26T20:38:04.753Z,0.80
2022-08-26T20:41:44.674Z,0.80
2022-08-26T20:45:22.785Z,0.70
2022-08-26T20:49:00.832Z,0.50
2022-08-26T20:52:38.400Z,0.80
2022-08-26T20:56:18.224Z,0.80
2022-08-26T20:59:55.882Z,0.60
2022-08-26T21:03:33.837Z,0.90
2022-08-26T21:07:11.786Z,1.00
2022-08-26T21:10:49.961Z,0.70
2022-08-26T21:14:30.049Z,0.70
2022-08-26T21:18:07.737Z,0.50
2022-08-26T21:21:47.653Z,0.40
2022-08-26T21:25:25.348Z,0.60
2022-08-26T21:29:05.315Z,0.50
2022-08-26T21:32:43.244Z,0.50
2022-08-26T21:36:20.923Z,1.00
2022-08-26T21:40:00.038Z,1.20
2022-08-26T21:43:39.050Z,1.10
2022-08-26T21:47:17.158Z,0.80
2022-08-26T21:50:54.964Z,0.90
2022-08-26T21:54:32.568Z,1.00
2022-08-26T21:58:10.403Z,1.30
2022-08-26T22:01:48.475Z,0.80
2022-08-26T22:05:27.475Z,0.80
2022-08-26T22:09:06.203Z,0.90
2022-08-26T22:12:43.987Z,0.90
2022-08-26T22:16:21.895Z,1.00
2022-08-26T22:20:00.007Z,1.20
2022-08-26T22:23:38.969Z,1.60
2022-08-26T22:27:16.197Z,1.60
2022-08-26T22:30:53.388Z,1.10
2022-08-26T22:34:30.786Z,1.20
2022-08-26T22:38:09.672Z,1.30
2022-08-26T22:41:48.925Z,1.30
2022-08-26T22:45:27.435Z,1.60
2022-08-26T22:49:04.993Z,1.20
2022-08-26T22:52:42.103Z,1.10
2022-08-26T22:56:21.290Z,1.40
2022-08-26T22:59:58.645Z,1.70
2022-08-26T23:03:37.057Z,1.40
2022-08-26T23:07:14.605Z,1.00
2022-08-26T23:10:52.524Z,1.00
2022-08-26T23:14:32.179Z,1.30
2022-08-26T23:18:10.471Z,1.00
2022-08-26T23:21:49.816Z,1.50
2022-08-26T23:25:28.567Z,1.10
2022-08-26T23:29:07.988Z,1.20
2022-08-26T23:32:45.533Z,1.20
2022-08-26T23:36:23.183Z,1.20
2022-08-26T23:40:09.139Z,1.00
2022-08-26T23:43:46.369Z,1.20
2022-08-26T23:47:25.190Z,1.10
2022-08-26T23:51:03.442Z,1.20
2022-08-26T23:54:41.036Z,1.10
2022-08-26T23:58:20.202Z,1.20
